createdAt,value
2018-11-01T00:01:42.526Z,4.00
2018-11-01T00:04:10.987Z,4.00
2018-11-01T00:06:39.173Z,4.10
2018-11-01T00:09:08.954Z,4.10
2018-11-01T00:11:37.751Z,4.10
2018-11-01T00:16:34.125Z,4.20
2018-11-01T00:19:02.784Z,4.20
2018-11-01T00:21:31.447Z,4.30
2018-11-01T00:23:59.658Z,4.20
2018-11-01T00:26:28.279Z,4.20
2018-11-01T00:28:56.680Z,4.20
2018-11-01T00:33:52.833Z,4.10
2018-11-01T00:38:49.693Z,3.80
2018-11-01T00:41:18.203Z,3.70
2018-11-01T00:46:14.902Z,3.80
2018-11-01T00:56:07.054Z,4.00
2018-11-01T01:01:03.711Z,4.00
2018-11-01T01:03:31.918Z,4.00
2018-11-01T01:06:00.109Z,4.00
2018-11-01T01:08:28.361Z,4.00
2018-11-01T01:10:56.969Z,3.90
2018-11-01T01:13:25.218Z,3.90
2018-11-01T01:18:22.347Z,3.90
2018-11-01T01:20:51.479Z,3.90
2018-11-01T01:25:48.481Z,3.90
2018-11-01T01:28:16.750Z,3.90
2018-11-01T01:30:46.197Z,3.80
2018-11-01T01:33:14.393Z,3.80
2018-11-01T01:35:42.692Z,3.70
2018-11-01T01:40:39.359Z,3.50
2018-11-01T01:43:08.660Z,3.40
2018-11-01T01:50:34.487Z,3.30
2018-11-01T01:53:03.540Z,3.20
2018-11-01T01:55:32.329Z,3.20
2018-11-01T01:58:00.542Z,3.30
2018-11-01T02:00:28.748Z,3.30
2018-11-01T02:05:25.082Z,3.40
2018-11-01T02:07:54.179Z,3.40
2018-11-01T02:12:50.995Z,3.40
2018-11-01T02:17:48.568Z,3.50
2018-11-01T02:20:17.926Z,3.50
2018-11-01T02:22:46.605Z,3.60
2018-11-01T02:25:14.815Z,3.50
2018-11-01T02:27:48.498Z,3.40
2018-11-01T02:30:17.682Z,3.30
2018-11-01T02:32:46.258Z,3.10
2018-11-01T02:35:15.667Z,3.10
2018-11-01T02:37:44.667Z,3.10
2018-11-01T02:40:13.242Z,3.10
2018-11-01T02:42:42.025Z,3.00
2018-11-01T02:45:11.461Z,2.90
2018-11-01T02:50:08.387Z,2.90
2018-11-01T02:52:36.593Z,2.90
2018-11-01T03:00:01.777Z,2.80
2018-11-01T03:02:30.733Z,2.80
2018-11-01T03:04:58.949Z,2.90
2018-11-01T03:07:27.725Z,2.90
2018-11-01T03:09:57.377Z,3.00
2018-11-01T03:12:26.058Z,3.10
2018-11-01T03:14:54.303Z,3.20
2018-11-01T03:17:22.506Z,3.20
2018-11-01T03:19:51.599Z,3.30
2018-11-01T03:24:48.453Z,3.30
2018-11-01T03:27:16.690Z,3.30
2018-11-01T03:29:45.134Z,3.30
2018-11-01T03:32:13.533Z,3.10
2018-11-01T03:37:09.774Z,2.90
2018-11-01T03:39:38.855Z,2.90
2018-11-01T03:42:07.581Z,2.90
2018-11-01T03:44:36.897Z,3.00
2018-11-01T03:59:25.731Z,2.80
2018-11-01T04:01:53.922Z,2.80
2018-11-01T04:04:22.333Z,2.90
2018-11-01T04:06:51.327Z,2.90
2018-11-01T04:09:19.627Z,3.00
2018-11-01T04:11:47.818Z,3.00
2018-11-01T04:16:44.012Z,3.10
2018-11-01T04:19:13.364Z,3.10
2018-11-01T04:31:34.606Z,3.10
2018-11-01T04:34:03.572Z,3.20
2018-11-01T04:36:32.423Z,3.20
2018-11-01T04:39:01.766Z,3.20
2018-11-01T04:41:30.550Z,3.30
2018-11-01T04:43:58.796Z,3.30
2018-11-01T04:48:56.243Z,3.30
2018-11-01T04:51:24.403Z,3.40
2018-11-01T04:53:52.607Z,3.40
2018-11-01T04:56:21.371Z,3.50
2018-11-01T05:01:21.675Z,3.50
2018-11-01T05:03:51.858Z,3.50
2018-11-01T05:06:20.922Z,3.50
2018-11-01T05:08:49.321Z,3.40
2018-11-01T05:11:18.289Z,3.40
2018-11-01T05:13:47.411Z,3.30
2018-11-01T05:16:15.590Z,3.30
2018-11-01T05:18:44.782Z,3.30
2018-11-01T05:31:05.622Z,3.50
2018-11-01T05:36:02.247Z,3.50
2018-11-01T05:38:30.474Z,3.50
2018-11-01T05:40:58.662Z,3.50
2018-11-01T05:45:56.999Z,3.50
2018-11-01T05:50:53.139Z,3.50
2018-11-01T05:55:50.841Z,3.60
2018-11-01T06:00:46.986Z,3.80
2018-11-01T06:03:15.152Z,3.90
2018-11-01T06:08:16.442Z,4.00
2018-11-01T06:10:44.907Z,4.00
2018-11-01T06:13:13.792Z,4.00
2018-11-01T06:15:41.994Z,4.00
2018-11-01T06:18:10.162Z,4.00
2018-11-01T06:20:38.414Z,4.10
2018-11-01T06:23:06.870Z,4.10
2018-11-01T06:25:35.070Z,4.10
2018-11-01T06:28:03.778Z,4.10
2018-11-01T06:30:31.995Z,4.20
2018-11-01T06:33:00.932Z,4.10
2018-11-01T06:35:47.715Z,4.20
2018-11-01T06:38:15.951Z,4.20
2018-11-01T06:40:44.118Z,4.20
2018-11-01T06:43:12.593Z,4.20
2018-11-01T06:48:08.798Z,4.20
2018-11-01T06:50:37.069Z,4.20
2018-11-01T07:00:30.559Z,4.10
2018-11-01T07:02:59.559Z,4.10
2018-11-01T07:07:55.913Z,4.20
2018-11-01T07:10:24.125Z,4.20
2018-11-01T07:12:52.277Z,4.20
2018-11-01T07:15:21.363Z,4.20
2018-11-01T07:27:43.088Z,4.40
2018-11-01T07:30:14.354Z,4.30
2018-11-01T07:32:42.585Z,4.40
2018-11-01T07:35:12.048Z,4.40
2018-11-01T07:40:10.839Z,4.40
2018-11-01T07:45:08.519Z,4.40
2018-11-01T07:59:57.394Z,4.70
2018-11-01T08:02:25.574Z,4.70
2018-11-01T08:04:54.194Z,4.80
2018-11-01T08:07:22.468Z,4.80
2018-11-01T08:09:51.117Z,4.90
2018-11-01T08:12:19.285Z,4.90
2018-11-01T08:14:47.678Z,5.00
2018-11-01T08:17:17.007Z,5.00
2018-11-01T08:29:38.252Z,5.10
2018-11-01T08:34:35.054Z,5.00
2018-11-01T08:37:03.218Z,5.00
2018-11-01T08:39:32.069Z,5.00
2018-11-01T08:42:00.648Z,5.00
2018-11-01T08:46:56.846Z,5.10
2018-11-01T08:51:52.941Z,5.20
2018-11-01T08:54:21.211Z,5.20
2018-11-01T08:59:17.277Z,5.20
2018-11-01T09:01:45.436Z,5.30
2018-11-01T09:04:13.699Z,5.30
2018-11-01T09:06:41.743Z,5.30
2018-11-01T09:14:06.400Z,5.40
2018-11-01T09:16:34.542Z,5.40
2018-11-01T09:19:02.693Z,5.40
2018-11-01T09:21:30.834Z,5.40
2018-11-01T09:23:59.001Z,5.40
2018-11-01T09:28:55.124Z,5.50
2018-11-01T09:31:23.288Z,5.60
2018-11-01T09:36:19.379Z,5.90
2018-11-01T09:38:47.540Z,6.10
2018-11-01T09:41:15.722Z,6.20
2018-11-01T09:43:43.886Z,6.30
2018-11-01T09:46:12.167Z,6.30
2018-11-01T09:48:40.323Z,6.40
2018-11-01T09:51:08.490Z,6.50
2018-11-01T09:53:36.630Z,6.60
2018-11-01T09:56:04.823Z,6.70
2018-11-01T09:58:32.931Z,6.80
2018-11-01T10:01:01.093Z,6.80
2018-11-01T10:03:29.223Z,6.90
2018-11-01T10:05:57.431Z,6.90
2018-11-01T10:08:25.510Z,7.10
2018-11-01T10:13:21.571Z,7.40
2018-11-01T10:15:49.932Z,7.70
2018-11-01T10:20:45.833Z,8.10
2018-11-01T10:23:14.070Z,8.20
2018-11-01T10:25:42.254Z,8.30
2018-11-01T10:30:38.758Z,8.60
2018-11-01T10:33:06.902Z,8.80
2018-11-01T10:35:35.646Z,8.90
2018-11-01T10:38:03.931Z,9.00
2018-11-01T10:40:32.654Z,9.20
2018-11-01T10:43:00.963Z,9.30
2018-11-01T10:55:20.966Z,9.50
2018-11-01T10:57:49.117Z,9.70
2018-11-01T11:00:22.658Z,9.80
2018-11-01T11:02:51.703Z,9.90
2018-11-01T11:05:21.126Z,10.00
2018-11-01T11:07:49.627Z,10.10
2018-11-01T11:10:18.299Z,10.30
2018-11-01T11:12:46.919Z,10.50
2018-11-01T11:20:12.245Z,11.00
2018-11-01T11:22:40.780Z,11.00
2018-11-01T11:25:10.742Z,11.00
2018-11-01T11:27:39.122Z,11.10
2018-11-01T11:30:08.922Z,11.10
2018-11-01T11:32:37.228Z,11.20
2018-11-01T11:35:05.917Z,11.20
2018-11-01T11:40:02.432Z,11.30
2018-11-01T11:42:30.682Z,11.40
2018-11-01T11:49:55.733Z,11.30
2018-11-01T11:54:52.231Z,11.30
2018-11-01T11:57:20.426Z,11.40
2018-11-01T11:59:48.554Z,11.40
2018-11-01T12:02:16.824Z,11.50
2018-11-01T12:04:44.908Z,11.50
2018-11-01T12:07:13.172Z,11.60
2018-11-01T12:09:41.311Z,11.60
2018-11-01T12:12:09.459Z,11.60
2018-11-01T12:14:37.799Z,11.70
2018-11-01T12:17:06.186Z,11.70
2018-11-01T12:19:34.587Z,11.90
2018-11-01T12:22:02.734Z,12.00
2018-11-01T12:24:31.116Z,12.10
2018-11-01T12:29:27.947Z,12.20
2018-11-01T12:31:56.104Z,12.30
2018-11-01T12:34:24.254Z,12.30
2018-11-01T12:36:52.818Z,12.40
2018-11-01T12:46:45.346Z,12.50
2018-11-01T12:49:13.753Z,12.50
2018-11-01T12:51:42.267Z,12.50
2018-11-01T12:54:10.479Z,12.40
2018-11-01T12:56:38.727Z,12.40
2018-11-01T12:59:07.474Z,12.40
2018-11-01T13:01:36.036Z,12.40
2018-11-01T13:06:32.215Z,12.40
2018-11-01T13:11:28.304Z,12.50
2018-11-01T13:13:56.438Z,12.50
2018-11-01T13:16:24.610Z,12.50
2018-11-01T13:18:53.026Z,12.50
2018-11-01T13:31:13.546Z,12.70
2018-11-01T13:33:42.087Z,12.60
2018-11-01T13:36:10.226Z,12.50
2018-11-01T13:38:38.462Z,12.50
2018-11-01T13:41:07.477Z,12.40
2018-11-01T13:43:35.612Z,12.50
2018-11-01T13:46:04.134Z,12.50
2018-11-01T13:48:32.767Z,12.50
2018-11-01T13:51:00.902Z,12.40
2018-11-01T13:53:29.085Z,12.40
2018-11-01T14:00:53.422Z,12.40
2018-11-01T14:03:21.995Z,12.40
2018-11-01T14:05:50.195Z,12.30
2018-11-01T14:08:18.353Z,12.30
2018-11-01T14:13:14.826Z,12.30
2018-11-01T14:28:04.031Z,12.10
2018-11-01T14:30:32.199Z,12.10
2018-11-01T14:33:00.371Z,12.10
2018-11-01T14:35:28.747Z,12.00
2018-11-01T14:37:56.943Z,12.00
2018-11-01T14:42:53.034Z,11.90
2018-11-01T14:50:17.146Z,11.90
2018-11-01T14:55:14.284Z,11.80
2018-11-01T15:00:10.411Z,11.60
2018-11-01T15:02:38.725Z,11.60
2018-11-01T15:05:07.312Z,11.60
2018-11-01T15:07:35.490Z,11.50
2018-11-01T15:10:03.674Z,11.40
2018-11-01T15:12:31.850Z,11.30
2018-11-01T15:17:28.165Z,11.20
2018-11-01T15:19:56.531Z,11.10
2018-11-01T15:22:24.938Z,11.00
2018-11-01T15:27:21.010Z,10.80
2018-11-01T15:29:49.327Z,10.70
2018-11-01T15:32:23.431Z,10.60
2018-11-01T15:42:15.773Z,10.20
2018-11-01T15:44:44.112Z,10.10
2018-11-01T15:47:12.312Z,10.10
2018-11-01T15:52:08.872Z,9.90
2018-11-01T15:57:04.960Z,9.70
2018-11-01T15:59:33.176Z,9.60
2018-11-01T16:02:01.394Z,9.50
2018-11-01T16:04:30.261Z,9.40
2018-11-01T16:06:58.439Z,9.30
2018-11-01T16:09:26.730Z,9.10
2018-11-01T16:11:54.876Z,9.00
2018-11-01T16:19:18.908Z,8.70
2018-11-01T16:26:43.406Z,8.40
2018-11-01T16:29:12.323Z,8.30
2018-11-01T16:31:40.523Z,8.20
2018-11-01T16:34:08.763Z,8.20
2018-11-01T16:36:36.980Z,8.20
2018-11-01T16:39:08.476Z,8.10
2018-11-01T16:41:36.682Z,8.00
2018-11-01T16:44:04.919Z,8.00
2018-11-01T17:01:21.947Z,7.40
2018-11-01T17:08:46.306Z,7.00
2018-11-01T17:11:14.783Z,6.90
2018-11-01T17:13:42.946Z,6.90
2018-11-01T17:28:31.920Z,6.20
2018-11-01T17:31:00.681Z,6.10
2018-11-01T17:35:56.968Z,6.20
2018-11-01T17:38:25.564Z,6.20
2018-11-01T17:40:54.227Z,6.30
2018-11-01T17:43:22.465Z,6.30
2018-11-01T17:45:50.799Z,6.30
2018-11-01T17:48:19.422Z,6.40
2018-11-01T17:55:44.254Z,6.50
2018-11-01T18:00:40.676Z,6.50
2018-11-01T18:03:09.328Z,6.50
2018-11-01T18:05:37.482Z,6.50
2018-11-01T18:10:33.886Z,6.40
2018-11-01T18:13:02.040Z,6.40
2018-11-01T18:17:58.554Z,6.30
2018-11-01T18:20:27.204Z,6.30
2018-11-01T18:30:19.777Z,6.20
2018-11-01T18:32:48.313Z,6.30
2018-11-01T18:35:16.513Z,6.30
2018-11-01T18:40:17.725Z,6.40
2018-11-01T18:42:46.451Z,6.40
2018-11-01T18:45:15.316Z,6.40
2018-11-01T18:57:39.039Z,6.80
2018-11-01T19:00:09.622Z,6.90
2018-11-01T19:02:38.777Z,7.00
2018-11-01T19:05:07.666Z,7.00
2018-11-01T19:07:35.876Z,7.00
2018-11-01T19:10:04.126Z,7.00
2018-11-01T19:15:00.919Z,7.60
2018-11-01T19:22:25.095Z,7.70
2018-11-01T19:24:53.872Z,7.70
2018-11-01T19:29:50.086Z,7.70
2018-11-01T19:32:18.865Z,7.70
2018-11-01T19:34:47.148Z,7.70
2018-11-01T19:39:44.331Z,7.70
2018-11-01T19:52:05.778Z,7.60
2018-11-01T19:54:34.603Z,7.60
2018-11-01T19:57:02.815Z,7.60
2018-11-01T19:59:30.946Z,7.60
2018-11-01T20:09:23.871Z,7.60
2018-11-01T20:11:52.650Z,7.70
2018-11-01T20:34:06.140Z,7.70
2018-11-01T20:36:34.311Z,7.70
2018-11-01T20:39:02.492Z,7.70
2018-11-01T20:41:30.639Z,7.60
2018-11-01T20:43:58.807Z,7.60
2018-11-01T20:53:51.738Z,7.60
2018-11-01T20:56:20.726Z,7.60
2018-11-01T20:58:49.664Z,7.60
2018-11-01T21:08:42.390Z,7.50
2018-11-01T21:11:11.437Z,7.50
2018-11-01T21:13:39.595Z,7.50
2018-11-01T21:18:35.838Z,7.50
2018-11-01T21:21:03.990Z,7.40
2018-11-01T21:26:00.885Z,7.40
2018-11-01T21:28:29.034Z,7.40
2018-11-01T21:30:57.591Z,7.30
2018-11-01T21:33:25.941Z,7.30
2018-11-01T21:35:54.925Z,7.30
2018-11-01T21:38:22.986Z,7.20
2018-11-01T21:40:51.312Z,7.20
2018-11-01T21:45:48.279Z,7.10
2018-11-01T21:48:17.187Z,7.10
2018-11-01T21:55:41.178Z,6.90
2018-11-01T22:00:37.637Z,6.80
2018-11-01T22:03:05.846Z,6.70
2018-11-01T22:05:33.971Z,6.70
2018-11-01T22:08:02.599Z,6.70
2018-11-01T22:10:30.746Z,6.70
2018-11-01T22:27:47.783Z,6.90
2018-11-01T22:32:44.191Z,6.90
2018-11-01T22:35:13.090Z,6.80
2018-11-01T22:37:42.186Z,6.90
2018-11-01T22:40:10.300Z,6.80
2018-11-01T22:42:38.576Z,6.80
2018-11-01T22:45:08.250Z,6.70
2018-11-01T22:47:37.190Z,6.70
2018-11-01T22:52:34.342Z,6.70
2018-11-01T22:55:02.677Z,6.60
2018-11-01T22:59:59.266Z,6.60
2018-11-01T23:04:55.727Z,6.60
2018-11-01T23:07:24.009Z,6.60
2018-11-01T23:09:53.619Z,6.60
2018-11-01T23:12:22.580Z,6.60
2018-11-01T23:19:47.763Z,6.50
2018-11-01T23:29:40.607Z,6.40
2018-11-01T23:32:09.698Z,6.40
2018-11-01T23:34:37.855Z,6.40
2018-11-01T23:39:45.845Z,6.40
2018-11-01T23:44:53.096Z,6.30
2018-11-01T23:50:02.038Z,6.20
2018-11-01T23:52:30.462Z,6.20
2018-11-01T23:54:59.190Z,6.20
